Time;durP1;ratioP1;P1;durP2;ratioP2;P2;SDS_P1;SDS_P2;PMS_P1;PMS_P2;Temp;Humidity;BMP_temperature;BMP_pressure;BME280_temperature;BME280_humidity;BME280_pressure;Samples;Min_cycle;Max_cycle;Signal;HPM_P1;HPM_P2
2022/09/13 06:59:27;;;;;;;5.47;3.50;;;;;;;16.20;58.01;100402.47;5499793;32;35085;-56
2022/09/13 07:02:29;;;;;;;5.07;3.45;;;;;;;16.27;57.35;100408.19;5464562;32;20132;-57
2022/09/13 07:05:31;;;;;;;6.93;3.60;;;;;;;16.32;56.84;100413.44;5468322;32;34522;-57
2022/09/13 07:08:34;;;;;;;6.65;3.92;;;;;;;16.40;56.40;100414.56;5468348;32;34254;-57
2022/09/13 07:11:38;;;;;;;11.40;4.18;;;;;;;16.48;55.80;100408.34;5468487;32;33756;-57
2022/09/13 07:14:40;;;;;;;10.40;4.22;;;;;;;16.59;56.83;100414.25;5468062;32;33646;-57
2022/09/13 07:17:42;;;;;;;7.43;4.32;;;;;;;16.66;56.24;100420.75;5553895;32;33656;-57
2022/09/13 07:20:45;;;;;;;7.20;3.50;;;;;;;16.70;55.65;100420.91;5468071;32;33658;-57
2022/09/13 07:23:47;;;;;;;8.15;3.83;;;;;;;16.80;55.58;100422.53;5467335;32;33725;-57
2022/09/13 07:26:50;;;;;;;21.00;4.30;;;;;;;17.01;53.90;100417.22;5463792;32;34015;-57
2022/09/13 07:29:52;;;;;;;5.95;3.03;;;;;;;17.21;53.25;100427.37;5466328;32;34334;-57
2022/09/13 07:32:54;;;;;;;8.15;3.30;;;;;;;17.22;52.88;100417.31;5467123;32;33216;-57
2022/09/13 07:35:58;;;;;;;5.18;3.05;;;;;;;17.37;52.91;100428.44;5467111;32;33908;-57
2022/09/13 07:39:01;;;;;;;7.37;2.97;;;;;;;17.36;51.74;100426.84;5463322;32;33524;-57
2022/09/13 07:42:03;;;;;;;9.90;3.90;;;;;;;17.41;52.05;100419.66;5466597;32;34246;-57
2022/09/13 07:45:06;;;;;;;10.90;3.45;;;;;;;17.59;52.21;100418.47;5467350;32;33591;-57
2022/09/13 07:48:08;;;;;;;9.23;3.33;;;;;;;17.61;52.44;100416.22;5465550;32;33741;-57
2022/09/13 07:51:19;;;;;;;6.95;3.20;;;;;;;17.77;51.29;100420.00;5460539;32;33666;-57
2022/09/13 07:54:21;;;;;;;8.43;3.67;;;;;;;17.78;51.32;100420.78;5460948;32;33632;-57
2022/09/13 07:57:24;;;;;;;8.55;4.10;;;;;;;17.71;52.15;100429.41;5468306;32;33958;-57
2022/09/13 08:00:26;;;;;;;9.18;4.15;;;;;;;17.93;51.17;100433.78;5467007;32;33296;-57
2022/09/13 08:03:29;;;;;;;9.43;4.07;;;;;;;18.10;50.41;100429.38;5459734;32;34334;-57
2022/09/13 08:06:33;;;;;;;8.43;3.80;;;;;;;18.17;50.60;100424.22;5460198;32;33792;-57
2022/09/13 08:09:35;;;;;;;22.67;3.72;;;;;;;18.24;50.34;100428.00;5464402;32;32094;-57
2022/09/13 08:12:37;;;;;;;7.78;4.37;;;;;;;18.21;50.51;100425.97;5460057;32;33312;-57
2022/09/13 08:15:39;;;;;;;14.68;4.30;;;;;;;18.07;51.35;100428.13;5459247;32;33575;-57
2022/09/13 08:18:46;;;;;;;14.77;4.60;;;;;;;18.16;51.34;100430.78;5465830;32;34183;-57
2022/09/13 08:21:48;;;;;;;8.38;4.20;;;;;;;18.19;51.41;100433.63;5467911;32;34272;-57
2022/09/13 08:24:50;;;;;;;10.18;3.70;;;;;;;18.22;51.44;100432.97;5456164;32;33589;-57
2022/09/13 08:27:53;;;;;;;12.30;3.67;;;;;;;18.18;50.19;100428.50;5465975;32;33699;-57
2022/09/13 08:30:55;;;;;;;17.52;8.77;;;;;;;18.29;49.98;100421.59;5467578;32;33703;-57
2022/09/13 08:33:58;;;;;;;11.30;3.45;;;;;;;18.42;49.77;100423.25;5458406;32;33812;-57
2022/09/13 08:37:00;;;;;;;6.00;3.30;;;;;;;18.53;51.49;100426.34;5461768;32;34290;-57
2022/09/13 08:40:02;;;;;;;7.30;3.40;;;;;;;18.72;49.32;100421.25;5464520;32;33095;-57
2022/09/13 08:43:17;;;;;;;11.15;3.40;;;;;;;18.73;49.86;100422.84;5461764;32;33600;-57
2022/09/13 08:46:19;;;;;;;6.47;3.28;;;;;;;18.78;49.74;100414.50;5462749;32;32027;-57
2022/09/13 08:49:21;;;;;;;20.45;4.18;;;;;;;18.89;49.65;100420.28;5466618;32;33629;-57
2022/09/13 08:52:29;;;;;;;7.57;3.37;;;;;;;18.88;50.07;100410.56;5467541;32;33664;-57
2022/09/13 08:55:43;;;;;;;18.85;3.67;;;;;;;18.89;50.07;100420.28;5465188;32;33914;-57
2022/09/13 08:58:53;;;;;;;8.82;3.00;;;;;;;18.98;50.00;100414.78;5471570;32;34379;-57
2022/09/13 09:02:04;;;;;;;20.50;4.03;;;;;;;19.01;49.19;100414.91;5474886;32;33628;-57
2022/09/13 09:05:20;;;;;;;7.12;3.58;;;;;;;18.96;49.01;100412.38;5468522;32;33343;-57
2022/09/13 09:08:51;;;;;;;9.93;2.80;;;;;;;18.94;49.06;100411.13;5469432;32;33870;-57
2022/09/13 09:12:00;;;;;;;6.87;3.00;;;;;;;18.91;49.40;100412.63;5459426;32;34234;-57
2022/09/13 09:15:07;;;;;;;11.45;3.75;;;;;;;19.10;50.41;100420.22;5469800;32;34393;-57
2022/09/13 09:18:33;;;;;;;18.17;3.75;;;;;;;19.29;47.69;100416.97;5472255;32;33608;-57
2022/09/13 09:21:36;;;;;;;4.87;2.75;;;;;;;19.21;48.04;100402.38;5472107;32;33611;-57
2022/09/13 09:24:43;;;;;;;11.70;2.45;;;;;;;19.31;46.79;100390.28;5468408;32;34432;-58
2022/09/13 09:27:45;;;;;;;4.60;2.45;;;;;;;19.27;47.40;100388.53;5459974;32;34188;-57
2022/09/13 09:31:02;;;;;;;12.32;2.97;;;;;;;19.27;46.61;100383.94;5460529;32;33587;-57
2022/09/13 09:34:16;;;;;;;4.32;2.35;;;;;;;19.33;46.21;100379.03;5466689;32;33751;-57
2022/09/13 09:37:21;;;;;;;7.10;2.70;;;;;;;19.42;47.95;100380.53;5470614;32;33750;-57
2022/09/13 09:40:23;;;;;;;3.95;2.60;;;;;;;19.55;46.41;100381.31;5468452;32;33741;-57
2022/09/13 09:43:51;;;;;;;8.82;2.83;;;;;;;19.68;45.61;100373.97;5464209;32;33836;-57
2022/09/13 09:47:01;;;;;;;4.78;2.42;;;;;;;19.59;46.38;100371.34;5471877;32;33159;-57
2022/09/13 09:50:13;;;;;;;7.60;2.78;;;;;;;19.66;46.65;100362.63;5466155;32;33543;-57
2022/09/13 09:53:40;;;;;;;5.15;2.62;;;;;;;19.62;49.16;100364.44;5484091;32;34334;-57
2022/09/13 09:56:54;;;;;;;4.45;2.58;;;;;;;19.73;46.80;100365.56;5471832;32;33814;-57
2022/09/13 10:00:11;;;;;;;8.57;3.33;;;;;;;19.75;46.81;100357.09;5465918;32;33279;-57
2022/09/13 10:03:18;;;;;;;11.02;3.80;;;;;;;19.76;45.93;100345.06;5467757;32;33555;-57
2022/09/13 10:06:24;;;;;;;8.00;3.20;;;;;;;19.81;45.88;100334.75;5462819;32;33896;-57
2022/09/13 10:09:26;;;;;;;4.65;2.60;;;;;;;19.78;46.19;100340.88;5459765;32;33721;-57
2022/09/13 10:12:32;;;;;;;5.68;2.58;;;;;;;19.76;45.89;100328.75;5457097;32;34433;-57
2022/09/13 10:15:35;;;;;;;4.55;3.08;;;;;;;19.75;45.56;100327.16;5464771;32;33850;-57
2022/09/13 10:18:37;;;;;;;5.85;3.70;;;;;;;19.78;44.56;100326.50;5463067;32;33483;-57
2022/09/13 10:22:00;;;;;;;5.18;2.80;;;;;;;19.78;44.39;100323.75;5456754;32;33709;-57
2022/09/13 10:25:14;;;;;;;8.47;2.87;;;;;;;19.88;44.85;100328.72;5453879;32;33652;-57
2022/09/13 10:28:18;;;;;;;6.75;3.12;;;;;;;19.85;44.29;100323.97;5452354;32;33751;-57
2022/09/13 10:31:27;;;;;;;6.37;3.45;;;;;;;19.88;45.85;100323.28;5467122;32;34019;-57
2022/09/13 10:34:33;;;;;;;4.60;3.25;;;;;;;19.93;45.79;100314.87;5458126;32;34424;-57
2022/09/13 10:37:36;;;;;;;7.82;3.55;;;;;;;19.97;45.69;100302.19;5462701;32;33701;-57
2022/09/13 10:40:38;;;;;;;6.90;3.40;;;;;;;20.03;46.42;100302.72;5465188;32;33655;-57
2022/09/13 10:43:41;;;;;;;5.80;3.40;;;;;;;20.03;46.58;100305.44;5466143;32;33699;-57
2022/09/13 10:46:48;;;;;;;10.20;3.45;;;;;;;20.07;46.54;100298.19;5466010;32;33893;-57
2022/09/13 10:49:53;;;;;;;7.15;3.62;;;;;;;20.11;45.87;100301.78;5454090;32;34344;-57
2022/09/13 10:52:57;;;;;;;8.37;3.40;;;;;;;20.17;45.88;100297.69;5468886;32;33985;-57
2022/09/13 10:56:01;;;;;;;9.25;3.37;;;;;;;20.25;47.23;100302.19;5458461;32;33660;-57
2022/09/13 10:59:29;;;;;;;6.65;3.28;;;;;;;20.31;46.75;100308.16;5464120;32;33620;-57
2022/09/13 11:02:41;;;;;;;8.57;3.55;;;;;;;20.33;46.25;100301.25;5466174;32;33238;-57
2022/09/13 11:06:02;;;;;;;6.87;3.25;;;;;;;20.50;44.01;100296.62;5477186;31;33726;-57
2022/09/13 11:09:14;;;;;;;10.88;3.50;;;;;;;20.36;44.74;100302.47;5480274;32;34451;-57
2022/09/13 11:12:22;;;;;;;6.25;3.50;;;;;;;20.37;44.97;100301.34;5473128;32;33679;-57
2022/09/13 11:15:36;;;;;;;6.50;3.00;;;;;;;20.46;45.88;100291.06;5477454;32;33776;-58
2022/09/13 11:19:14;;;;;;;8.13;3.72;;;;;;;20.59;45.24;100286.38;5477352;32;33750;-57
2022/09/13 11:22:47;;;;;;;6.30;3.08;;;;;;;20.52;44.30;100276.09;5485532;32;33773;-57
2022/09/13 11:26:24;;;;;;;7.90;3.00;;;;;;;20.58;45.19;100276.62;5487120;31;34408;-57
2022/09/13 11:29:42;;;;;;;12.13;3.40;;;;;;;20.65;44.57;100279.53;5494469;31;34353;-57
2022/09/13 11:32:56;;;;;;;7.25;3.47;;;;;;;20.57;45.75;100283.22;5468012;32;33618;-57
2022/09/13 11:36:17;;;;;;;6.47;3.05;;;;;;;20.67;45.03;100277.25;5469358;32;33131;-57
2022/09/13 11:39:22;;;;;;;5.65;3.35;;;;;;;20.58;44.91;100271.19;5472287;32;33745;-57
2022/09/13 11:42:46;;;;;;;7.25;3.12;;;;;;;20.59;44.32;100267.31;5479798;32;34000;-57
2022/09/13 11:46:04;;;;;;;5.73;3.23;;;;;;;20.58;44.94;100257.56;5466640;32;34479;-57
2022/09/13 11:49:26;;;;;;;8.95;3.42;;;;;;;20.67;44.56;100252.75;5517116;32;34243;-57
2022/09/13 11:52:36;;;;;;;9.10;2.72;;;;;;;20.73;46.26;100243.16;5505460;32;34285;-57
2022/09/13 11:55:46;;;;;;;3.22;2.40;;;;;;;20.70;43.85;100243.87;5468384;32;34268;-57
2022/09/13 11:58:59;;;;;;;6.35;2.47;;;;;;;20.71;42.59;100253.63;5475445;32;33856;-57
2022/09/13 12:02:17;;;;;;;5.80;3.35;;;;;;;20.71;42.70;100242.72;5467978;32;33847;-57
2022/09/13 12:05:23;;;;;;;9.93;3.30;;;;;;;20.88;44.67;100239.63;5477010;32;34546;-57
2022/09/13 12:08:32;;;;;;;8.15;2.83;;;;;;;20.89;45.27;100240.41;5471177;32;33714;-57
2022/09/13 12:11:41;;;;;;;5.50;2.70;;;;;;;20.94;45.35;100234.72;5468406;32;34478;-57
2022/09/13 12:15:07;;;;;;;5.20;2.90;;;;;;;20.96;42.71;100251.50;5468740;32;33832;-57
2022/09/13 12:18:22;;;;;;;9.55;2.55;;;;;;;20.90;41.41;100233.06;5468449;32;34312;-57
2022/09/13 12:21:39;;;;;;;4.45;2.42;;;;;;;21.00;42.98;100236.03;5469031;32;33922;-57
2022/09/13 12:24:54;;;;;;;3.97;2.55;;;;;;;21.01;41.78;100236.81;5468852;32;33692;-57
2022/09/13 12:28:05;;;;;;;5.00;2.30;;;;;;;21.05;42.89;100221.31;5470084;32;34393;-58
2022/09/13 12:31:18;;;;;;;3.08;2.20;;;;;;;21.04;42.13;100231.44;5471687;32;33715;-57
2022/09/13 12:34:38;;;;;;;2.47;2.10;;;;;;;21.11;41.01;100230.81;5470975;32;33657;-57
2022/09/13 12:38:11;;;;;;;3.55;2.45;;;;;;;21.13;43.89;100225.81;5471446;32;34463;-57
2022/09/13 12:41:26;;;;;;;4.03;2.40;;;;;;;21.07;42.86;100219.84;5471424;32;33819;-58
2022/09/13 12:44:34;;;;;;;2.92;2.00;;;;;;;21.07;42.12;100219.84;5471378;32;34449;-57
2022/09/13 12:48:08;;;;;;;3.25;2.37;;;;;;;21.06;42.41;100220.97;5470722;32;33704;-58
2022/09/13 12:51:29;;;;;;;4.65;2.47;;;;;;;21.06;41.99;100218.25;5471023;32;33754;-57
2022/09/13 12:54:56;;;;;;;4.40;2.50;;;;;;;21.07;42.59;100214.38;5471181;32;33663;-57
2022/09/13 12:58:26;;;;;;;5.32;2.10;;;;;;;21.08;43.63;100218.69;5470915;32;33635;-57
2022/09/13 13:01:31;;;;;;;4.05;2.45;;;;;;;21.07;43.58;100208.94;5471239;32;33683;-57
2022/09/13 13:04:35;;;;;;;3.62;2.15;;;;;;;21.10;44.82;100221.06;5471213;32;33616;-57
2022/09/13 13:07:39;;;;;;;3.12;2.30;;;;;;;21.10;43.17;100207.44;5470961;32;34148;-57
2022/09/13 13:10:41;;;;;;;3.28;2.28;;;;;;;21.09;43.59;100209.38;5471110;32;33179;-57
2022/09/13 13:13:53;;;;;;;3.53;2.40;;;;;;;21.09;43.90;100198.47;5484763;32;33912;-57
2022/09/13 13:17:33;;;;;;;5.07;2.53;;;;;;;21.07;44.13;100205.41;5477528;32;34290;-57
2022/09/13 13:20:53;;;;;;;3.53;2.10;;;;;;;21.04;43.68;100195.22;5481566;32;34399;-57
2022/09/13 13:24:14;;;;;;;4.87;2.22;;;;;;;21.01;43.17;100199.44;5489349;32;33876;-57
2022/09/13 13:27:33;;;;;;;14.70;2.80;;;;;;;21.06;43.98;100201.91;5486013;32;34361;-57
2022/09/13 13:30:51;;;;;;;5.80;2.20;;;;;;;21.06;44.79;100201.91;5489009;32;33663;-57
2022/09/13 13:34:05;;;;;;;11.90;2.80;;;;;;;21.09;43.86;100190.28;5475284;32;33711;-57
2022/09/13 13:37:07;;;;;;;5.30;2.15;;;;;;;21.14;43.83;100194.66;5488905;32;33362;-57
2022/09/13 13:40:25;;;;;;;3.30;2.30;;;;;;;21.10;44.40;100200.03;5488951;32;33651;-57
2022/09/13 13:43:30;;;;;;;9.30;2.70;;;;;;;21.13;45.11;100190.38;5487909;32;34281;-57
2022/09/13 13:46:33;;;;;;;12.80;2.53;;;;;;;21.16;44.51;100180.66;5488465;32;33700;-57
2022/09/13 13:49:38;;;;;;;7.32;2.30;;;;;;;21.17;44.48;100169.44;5488034;32;34467;-57
2022/09/13 13:52:45;;;;;;;6.28;2.40;;;;;;;21.22;44.89;100166.41;5488330;32;34322;-57
2022/09/13 13:56:06;;;;;;;5.10;2.17;;;;;;;21.31;47.66;100174.38;5488600;32;33783;-57
2022/09/13 13:59:17;;;;;;;12.25;2.45;;;;;;;21.35;45.16;100175.28;5487308;32;34471;-57
2022/09/13 14:02:27;;;;;;;3.95;2.20;;;;;;;21.35;44.50;100169.81;5487426;32;33908;-57
2022/09/13 14:05:56;;;;;;;6.45;2.45;;;;;;;21.34;44.13;100173.69;5489256;32;33584;-57
2022/09/13 14:09:33;;;;;;;8.40;2.72;;;;;;;21.34;44.17;100171.75;5489509;32;34362;-57
2022/09/13 14:12:45;;;;;;;9.35;2.58;;;;;;;21.35;43.58;100161.66;5497215;32;33781;-57
2022/09/13 14:16:11;;;;;;;13.95;2.87;;;;;;;21.35;44.35;100162.44;5488756;32;33712;-57
2022/09/13 14:19:23;;;;;;;5.53;2.12;;;;;;;21.33;45.08;100161.19;5489494;32;33705;-57
2022/09/13 14:22:27;;;;;;;8.07;2.15;;;;;;;21.38;45.20;100160.94;5489130;32;33792;-57
2022/09/13 14:25:29;;;;;;;5.05;2.10;;;;;;;21.40;44.50;100153.19;5489379;32;33699;-57
2022/09/13 14:28:31;;;;;;;4.55;2.40;;;;;;;21.38;44.98;100152.75;5488550;32;33704;-57
2022/09/13 14:31:34;;;;;;;4.82;2.20;;;;;;;21.37;44.98;100150.41;5489075;32;34380;-57
2022/09/13 14:34:37;;;;;;;14.75;2.87;;;;;;;21.39;46.31;100148.06;5477902;32;34245;-57
2022/09/13 14:37:40;;;;;;;6.07;2.28;;;;;;;21.41;47.16;100148.53;5470264;32;34433;-57
2022/09/13 14:40:47;;;;;;;6.12;2.40;;;;;;;21.38;44.00;100143.78;5469848;32;33725;-57
2022/09/13 14:43:49;;;;;;;5.32;2.25;;;;;;;21.41;47.15;100143.84;5470152;32;33720;-57
2022/09/13 14:47:05;;;;;;;3.35;1.98;;;;;;;21.43;44.59;100141.56;5470260;32;33679;-57
2022/09/13 14:50:14;;;;;;;3.20;1.95;;;;;;;21.47;44.28;100130.72;5469063;32;33705;-57
2022/09/13 14:53:23;;;;;;;4.25;2.15;;;;;;;21.48;44.00;100127.63;5470448;32;33654;-57
2022/09/13 14:56:34;;;;;;;8.30;2.10;;;;;;;21.47;44.37;100130.72;5469915;32;33822;-58
2022/09/13 14:59:48;;;;;;;3.05;2.10;;;;;;;21.50;47.94;100125.34;5469795;32;33734;-57
2022/09/13 15:02:58;;;;;;;2.70;2.08;;;;;;;21.51;46.29;100118.72;5469482;32;33618;-58
2022/09/13 15:06:02;;;;;;;4.10;1.87;;;;;;;21.49;44.54;100129.22;5469915;32;34025;-57
2022/09/13 15:09:10;;;;;;;2.10;1.90;;;;;;;21.51;44.04;100117.94;5469764;32;33677;-57
2022/09/13 15:12:24;;;;;;;4.37;2.33;;;;;;;21.46;44.18;100126.44;5470132;32;34233;-58
2022/09/13 15:15:29;;;;;;;2.25;2.00;;;;;;;21.41;44.17;100110.34;5469858;32;33730;-64
2022/09/13 15:18:32;;;;;;;3.25;2.00;;;;;;;21.40;44.52;100115.00;5470129;32;33580;-57
2022/09/13 15:21:38;;;;;;;5.18;2.05;;;;;;;21.40;45.23;100114.22;5470069;32;33796;-57
2022/09/13 15:24:47;;;;;;;3.62;2.28;;;;;;;21.42;45.49;100109.19;5469998;32;33206;-57
2022/09/13 15:27:49;;;;;;;4.47;2.10;;;;;;;21.40;49.37;100104.09;5469714;32;33815;-57
2022/09/13 15:30:52;;;;;;;3.50;1.77;;;;;;;21.33;46.49;100101.22;5470089;32;33946;-57
2022/09/13 15:34:17;;;;;;;2.70;2.00;;;;;;;21.26;45.77;100103.81;5469607;32;33717;-57
2022/09/13 15:37:28;;;;;;;3.40;1.90;;;;;;;21.23;45.90;100097.13;5469753;32;33902;-57
2022/09/13 15:40:42;;;;;;;2.70;1.90;;;;;;;21.19;45.04;100096.28;5469636;32;33771;-57
2022/09/13 15:43:47;;;;;;;3.58;1.67;;;;;;;21.19;44.88;100092.72;5469727;32;33765;-57
2022/09/13 15:46:54;;;;;;;2.75;1.90;;;;;;;21.17;45.28;100097.78;5469711;32;34494;-57
2022/09/13 15:49:57;;;;;;;2.33;2.00;;;;;;;21.15;45.71;100089.16;5469565;32;33655;-57
2022/09/13 15:53:00;;;;;;;2.60;1.60;;;;;;;21.10;45.80;100093.75;5455887;32;33653;-57
2022/09/13 15:56:03;;;;;;;2.37;2.05;;;;;;;21.12;46.23;100094.19;5469004;32;32340;-57
2022/09/13 15:59:05;;;;;;;3.97;2.28;;;;;;;21.10;45.74;100092.97;5469296;32;33625;-57
2022/09/13 16:02:20;;;;;;;3.28;1.95;;;;;;;21.10;46.01;100082.06;5468843;32;33721;-57
2022/09/13 16:05:22;;;;;;;2.95;2.37;;;;;;;21.13;45.86;100075.91;5469306;32;33631;-57
2022/09/13 16:08:24;;;;;;;4.65;2.37;;;;;;;21.10;45.96;100077.41;5469112;32;33819;-57
2022/09/13 16:11:27;;;;;;;3.42;1.92;;;;;;;21.04;46.78;100070.66;5469246;32;34466;-57
2022/09/13 16:14:30;;;;;;;5.82;2.30;;;;;;;21.05;47.08;100074.94;5469090;32;33719;-57
2022/09/13 16:17:32;;;;;;;5.12;2.40;;;;;;;21.03;47.39;100063.63;5469341;32;33686;-57
2022/09/13 16:20:35;;;;;;;4.80;2.00;;;;;;;20.98;47.71;100058.44;5468881;32;34204;-57
2022/09/13 16:23:37;;;;;;;3.45;2.20;;;;;;;20.98;47.54;100061.19;5468989;32;34029;-58
